sensor_id;sensor_type;location;lat;lon;timestamp;temperature;humidity
57386;DHT22;62655;56.780;23.922;2022-08-21T00:00:24;16.20;99.90
57386;DHT22;62655;56.780;23.922;2022-08-21T00:03:04;16.20;99.90
57386;DHT22;62655;56.780;23.922;2022-08-21T00:05:35;16.10;99.90
57386;DHT22;62655;56.780;23.922;2022-08-21T00:08:04;16.20;99.90
57386;DHT22;62655;56.780;23.922;2022-08-21T00:10:32;16.20;99.90
57386;DHT22;62655;56.780;23.922;2022-08-21T00:13:02;16.30;99.90
57386;DHT22;62655;56.780;23.922;2022-08-21T00:15:31;16.40;99.90
57386;DHT22;62655;56.780;23.922;2022-08-21T00:17:59;16.50;99.90
57386;DHT22;62655;56.780;23.922;2022-08-21T00:20:27;16.60;99.90
57386;DHT22;62655;56.780;23.922;2022-08-21T00:22:55;16.80;99.90
57386;DHT22;62655;56.780;23.922;2022-08-21T00:25:23;16.90;99.90
57386;DHT22;62655;56.780;23.922;2022-08-21T00:27:53;16.90;99.90
57386;DHT22;62655;56.780;23.922;2022-08-21T00:30:23;17.00;99.90
57386;DHT22;62655;56.780;23.922;2022-08-21T00:32:53;17.00;99.90
57386;DHT22;62655;56.780;23.922;2022-08-21T00:35:31;17.10;99.90
57386;DHT22;62655;56.780;23.922;2022-08-21T00:37:59;17.10;99.90
57386;DHT22;62655;56.780;23.922;2022-08-21T00:40:38;17.00;99.90
57386;DHT22;62655;56.780;23.922;2022-08-21T00:43:11;17.00;99.90
57386;DHT22;62655;56.780;23.922;2022-08-21T00:45:39;16.90;99.90
57386;DHT22;62655;56.780;23.922;2022-08-21T00:48:06;16.90;99.90
57386;DHT22;62655;56.780;23.922;2022-08-21T00:50:38;16.80;99.90
57386;DHT22;62655;56.780;23.922;2022-08-21T00:53:08;16.80;99.90
57386;DHT22;62655;56.780;23.922;2022-08-21T00:55:37;16.70;99.90
57386;DHT22;62655;56.780;23.922;2022-08-21T00:58:07;16.70;99.90
57386;DHT22;62655;56.780;23.922;2022-08-21T01:00:38;16.70;99.90
57386;DHT22;62655;56.780;23.922;2022-08-21T01:03:10;16.70;99.90
57386;DHT22;62655;56.780;23.922;2022-08-21T01:05:40;16.70;99.90
57386;DHT22;62655;56.780;23.922;2022-08-21T01:08:08;16.70;99.90
57386;DHT22;62655;56.780;23.922;2022-08-21T01:10:37;16.70;99.90
57386;DHT22;62655;56.780;23.922;2022-08-21T01:13:09;16.70;99.90
57386;DHT22;62655;56.780;23.922;2022-08-21T01:15:40;16.70;99.90
57386;DHT22;62655;56.780;23.922;2022-08-21T01:18:10;16.70;99.90
57386;DHT22;62655;56.780;23.922;2022-08-21T01:20:43;16.60;99.90
57386;DHT22;62655;56.780;23.922;2022-08-21T01:23:12;16.50;99.90
57386;DHT22;62655;56.780;23.922;2022-08-21T01:25:40;16.50;99.90
57386;DHT22;62655;56.780;23.922;2022-08-21T01:28:13;16.60;99.90
57386;DHT22;62655;56.780;23.922;2022-08-21T01:30:42;16.70;99.90
57386;DHT22;62655;56.780;23.922;2022-08-21T01:33:10;16.70;99.90
57386;DHT22;62655;56.780;23.922;2022-08-21T01:35:38;16.70;99.90
57386;DHT22;62655;56.780;23.922;2022-08-21T01:38:05;16.80;99.90
57386;DHT22;62655;56.780;23.922;2022-08-21T01:40:33;16.80;99.90
57386;DHT22;62655;56.780;23.922;2022-08-21T01:43:01;16.80;99.90
57386;DHT22;62655;56.780;23.922;2022-08-21T01:45:30;16.80;99.90
57386;DHT22;62655;56.780;23.922;2022-08-21T01:47:57;16.80;99.90
57386;DHT22;62655;56.780;23.922;2022-08-21T01:50:25;16.60;99.90
57386;DHT22;62655;56.780;23.922;2022-08-21T01:52:52;16.50;99.90
57386;DHT22;62655;56.780;23.922;2022-08-21T01:55:20;16.50;99.90
57386;DHT22;62655;56.780;23.922;2022-08-21T01:57:48;16.50;99.90
57386;DHT22;62655;56.780;23.922;2022-08-21T02:00:20;16.50;99.90
57386;DHT22;62655;56.780;23.922;2022-08-21T02:02:50;16.60;99.90
57386;DHT22;62655;56.780;23.922;2022-08-21T02:05:19;16.60;99.90
57386;DHT22;62655;56.780;23.922;2022-08-21T02:07:50;16.60;99.90
57386;DHT22;62655;56.780;23.922;2022-08-21T02:10:30;16.60;99.90
57386;DHT22;62655;56.780;23.922;2022-08-21T02:12:59;16.50;99.90
57386;DHT22;62655;56.780;23.922;2022-08-21T02:15:28;16.50;99.90
57386;DHT22;62655;56.780;23.922;2022-08-21T02:17:58;16.40;99.90
57386;DHT22;62655;56.780;23.922;2022-08-21T02:20:36;16.30;99.90
57386;DHT22;62655;56.780;23.922;2022-08-21T02:23:05;16.20;99.90
57386;DHT22;62655;56.780;23.922;2022-08-21T02:25:33;16.20;99.90
57386;DHT22;62655;56.780;23.922;2022-08-21T02:28:09;16.10;99.90
57386;DHT22;62655;56.780;23.922;2022-08-21T02:30:41;16.20;99.90
57386;DHT22;62655;56.780;23.922;2022-08-21T02:33:10;16.20;99.90
57386;DHT22;62655;56.780;23.922;2022-08-21T02:35:41;16.20;99.90
57386;DHT22;62655;56.780;23.922;2022-08-21T02:38:12;16.20;99.90
57386;DHT22;62655;56.780;23.922;2022-08-21T02:40:42;16.20;99.90
57386;DHT22;62655;56.780;23.922;2022-08-21T02:43:14;16.20;99.90
57386;DHT22;62655;56.780;23.922;2022-08-21T02:45:43;16.20;99.90
57386;DHT22;62655;56.780;23.922;2022-08-21T02:48:14;16.20;99.90
57386;DHT22;62655;56.780;23.922;2022-08-21T02:50:45;16.30;99.90
57386;DHT22;62655;56.780;23.922;2022-08-21T02:53:15;16.30;99.90
57386;DHT22;62655;56.780;23.922;2022-08-21T02:55:48;16.30;99.90
57386;DHT22;62655;56.780;23.922;2022-08-21T02:58:31;16.30;99.90
57386;DHT22;62655;56.780;23.922;2022-08-21T03:00:59;16.20;99.90
57386;DHT22;62655;56.780;23.922;2022-08-21T03:03:27;16.10;99.90
57386;DHT22;62655;56.780;23.922;2022-08-21T03:05:56;16.10;99.90
57386;DHT22;62655;56.780;23.922;2022-08-21T03:08:24;16.10;99.90
57386;DHT22;62655;56.780;23.922;2022-08-21T03:10:54;16.10;99.90
57386;DHT22;62655;56.780;23.922;2022-08-21T03:13:22;16.20;99.90
57386;DHT22;62655;56.780;23.922;2022-08-21T03:15:50;16.30;99.90
57386;DHT22;62655;56.780;23.922;2022-08-21T03:18:17;16.30;99.90
57386;DHT22;62655;56.780;23.922;2022-08-21T03:20:46;16.40;99.90
57386;DHT22;62655;56.780;23.922;2022-08-21T03:23:14;16.40;99.90
57386;DHT22;62655;56.780;23.922;2022-08-21T03:25:46;16.40;99.90
57386;DHT22;62655;56.780;23.922;2022-08-21T03:28:17;16.40;99.90
57386;DHT22;62655;56.780;23.922;2022-08-21T03:30:48;16.40;99.90
57386;DHT22;62655;56.780;23.922;2022-08-21T03:33:17;16.30;99.90
57386;DHT22;62655;56.780;23.922;2022-08-21T03:35:52;16.30;99.90
57386;DHT22;62655;56.780;23.922;2022-08-21T03:38:23;16.20;99.90
57386;DHT22;62655;56.780;23.922;2022-08-21T03:40:52;16.20;99.90
57386;DHT22;62655;56.780;23.922;2022-08-21T03:43:20;16.20;99.90
57386;DHT22;62655;56.780;23.922;2022-08-21T03:45:48;16.30;99.90
57386;DHT22;62655;56.780;23.922;2022-08-21T03:48:18;16.40;99.90
57386;DHT22;62655;56.780;23.922;2022-08-21T03:50:47;16.60;99.90
57386;DHT22;62655;56.780;23.922;2022-08-21T03:53:16;16.60;99.90
57386;DHT22;62655;56.780;23.922;2022-08-21T03:55:45;16.60;99.90
57386;DHT22;62655;56.780;23.922;2022-08-21T03:58:14;16.70;99.90
57386;DHT22;62655;56.780;23.922;2022-08-21T04:00:45;16.80;99.90
57386;DHT22;62655;56.780;23.922;2022-08-21T04:03:13;16.90;99.90
57386;DHT22;62655;56.780;23.922;2022-08-21T04:05:41;17.00;99.90
57386;DHT22;62655;56.780;23.922;2022-08-21T04:08:09;17.10;99.90
57386;DHT22;62655;56.780;23.922;2022-08-21T04:10:37;17.10;99.90
57386;DHT22;62655;56.780;23.922;2022-08-21T04:13:07;17.20;99.90
57386;DHT22;62655;56.780;23.922;2022-08-21T04:15:35;17.30;99.90
57386;DHT22;62655;56.780;23.922;2022-08-21T04:18:04;17.40;99.90
57386;DHT22;62655;56.780;23.922;2022-08-21T04:20:32;17.40;99.90
57386;DHT22;62655;56.780;23.922;2022-08-21T04:23:01;17.50;99.90
57386;DHT22;62655;56.780;23.922;2022-08-21T04:25:29;17.60;99.90
57386;DHT22;62655;56.780;23.922;2022-08-21T04:27:56;17.70;99.90
57386;DHT22;62655;56.780;23.922;2022-08-21T04:30:25;17.80;99.90
57386;DHT22;62655;56.780;23.922;2022-08-21T04:32:55;17.90;99.90
57386;DHT22;62655;56.780;23.922;2022-08-21T04:35:26;18.00;99.90
57386;DHT22;62655;56.780;23.922;2022-08-21T04:37:53;18.00;99.90
57386;DHT22;62655;56.780;23.922;2022-08-21T04:40:22;18.00;99.90
57386;DHT22;62655;56.780;23.922;2022-08-21T04:42:52;18.00;99.90
57386;DHT22;62655;56.780;23.922;2022-08-21T04:45:41;18.10;99.90
57386;DHT22;62655;56.780;23.922;2022-08-21T04:48:13;18.20;99.90
57386;DHT22;62655;56.780;23.922;2022-08-21T04:50:44;18.20;99.90
57386;DHT22;62655;56.780;23.922;2022-08-21T04:53:20;18.30;99.90
57386;DHT22;62655;56.780;23.922;2022-08-21T04:55:49;18.30;99.90
57386;DHT22;62655;56.780;23.922;2022-08-21T04:58:20;18.40;99.90
57386;DHT22;62655;56.780;23.922;2022-08-21T05:00:49;18.50;99.90
57386;DHT22;62655;56.780;23.922;2022-08-21T05:03:18;18.50;99.90
57386;DHT22;62655;56.780;23.922;2022-08-21T05:05:46;18.60;99.90
57386;DHT22;62655;56.780;23.922;2022-08-21T05:08:17;18.70;99.90
57386;DHT22;62655;56.780;23.922;2022-08-21T05:10:46;18.60;99.90
57386;DHT22;62655;56.780;23.922;2022-08-21T05:13:14;18.80;99.90
57386;DHT22;62655;56.780;23.922;2022-08-21T05:15:42;19.00;99.90
57386;DHT22;62655;56.780;23.922;2022-08-21T05:18:10;19.00;99.90
57386;DHT22;62655;56.780;23.922;2022-08-21T05:20:38;19.10;99.90
57386;DHT22;62655;56.780;23.922;2022-08-21T05:23:12;19.10;99.90
57386;DHT22;62655;56.780;23.922;2022-08-21T05:25:41;19.30;99.90
57386;DHT22;62655;56.780;23.922;2022-08-21T05:28:09;19.50;99.90
57386;DHT22;62655;56.780;23.922;2022-08-21T05:30:37;19.50;99.90
57386;DHT22;62655;56.780;23.922;2022-08-21T05:33:06;19.70;99.90
57386;DHT22;62655;56.780;23.922;2022-08-21T05:35:38;19.70;99.90
57386;DHT22;62655;56.780;23.922;2022-08-21T05:38:06;19.80;99.90
57386;DHT22;62655;56.780;23.922;2022-08-21T05:40:44;19.70;99.90
57386;DHT22;62655;56.780;23.922;2022-08-21T05:43:13;19.60;99.90
57386;DHT22;62655;56.780;23.922;2022-08-21T05:45:41;19.60;99.90
57386;DHT22;62655;56.780;23.922;2022-08-21T05:48:13;19.60;99.90
57386;DHT22;62655;56.780;23.922;2022-08-21T05:50:41;19.70;99.90
57386;DHT22;62655;56.780;23.922;2022-08-21T05:53:12;19.80;99.90
57386;DHT22;62655;56.780;23.922;2022-08-21T05:55:40;19.90;99.90
57386;DHT22;62655;56.780;23.922;2022-08-21T05:58:13;19.90;99.90
57386;DHT22;62655;56.780;23.922;2022-08-21T06:00:42;20.10;99.90
57386;DHT22;62655;56.780;23.922;2022-08-21T06:03:24;20.30;99.90
57386;DHT22;62655;56.780;23.922;2022-08-21T06:05:51;20.50;99.90
57386;DHT22;62655;56.780;23.922;2022-08-21T06:08:20;20.30;99.90
57386;DHT22;62655;56.780;23.922;2022-08-21T06:10:50;20.40;99.90
57386;DHT22;62655;56.780;23.922;2022-08-21T06:13:18;20.00;99.90
57386;DHT22;62655;56.780;23.922;2022-08-21T06:15:47;20.00;99.90
57386;DHT22;62655;56.780;23.922;2022-08-21T06:18:17;19.90;99.90
57386;DHT22;62655;56.780;23.922;2022-08-21T06:20:45;20.00;99.90
57386;DHT22;62655;56.780;23.922;2022-08-21T06:23:12;20.00;99.90
57386;DHT22;62655;56.780;23.922;2022-08-21T06:25:40;20.20;99.90
57386;DHT22;62655;56.780;23.922;2022-08-21T06:28:09;20.30;99.90
57386;DHT22;62655;56.780;23.922;2022-08-21T06:30:38;20.30;99.90
57386;DHT22;62655;56.780;23.922;2022-08-21T06:33:06;20.40;99.90
57386;DHT22;62655;56.780;23.922;2022-08-21T06:35:35;20.20;99.90
57386;DHT22;62655;56.780;23.922;2022-08-21T06:38:07;20.40;99.90
57386;DHT22;62655;56.780;23.922;2022-08-21T06:40:35;20.40;99.90
57386;DHT22;62655;56.780;23.922;2022-08-21T06:43:14;20.70;99.90
57386;DHT22;62655;56.780;23.922;2022-08-21T06:45:43;20.70;99.90
57386;DHT22;62655;56.780;23.922;2022-08-21T06:48:11;20.90;99.90
57386;DHT22;62655;56.780;23.922;2022-08-21T06:50:45;20.70;99.90
57386;DHT22;62655;56.780;23.922;2022-08-21T06:53:15;20.80;99.90
57386;DHT22;62655;56.780;23.922;2022-08-21T06:55:43;21.10;99.90
57386;DHT22;62655;56.780;23.922;2022-08-21T06:58:11;21.00;99.90
57386;DHT22;62655;56.780;23.922;2022-08-21T07:00:42;21.20;99.90
57386;DHT22;62655;56.780;23.922;2022-08-21T07:03:40;21.10;99.90
57386;DHT22;62655;56.780;23.922;2022-08-21T07:06:09;21.20;99.90
57386;DHT22;62655;56.780;23.922;2022-08-21T07:08:38;21.10;99.90
57386;DHT22;62655;56.780;23.922;2022-08-21T07:11:20;21.00;99.90
57386;DHT22;62655;56.780;23.922;2022-08-21T07:13:48;20.90;99.90
57386;DHT22;62655;56.780;23.922;2022-08-21T07:16:18;21.00;99.90
57386;DHT22;62655;56.780;23.922;2022-08-21T07:18:46;21.00;99.90
57386;DHT22;62655;56.780;23.922;2022-08-21T07:21:15;21.10;99.90
57386;DHT22;62655;56.780;23.922;2022-08-21T07:23:49;21.40;99.90
57386;DHT22;62655;56.780;23.922;2022-08-21T07:26:19;21.80;99.90
57386;DHT22;62655;56.780;23.922;2022-08-21T07:28:49;21.60;99.90
57386;DHT22;62655;56.780;23.922;2022-08-21T07:31:19;21.60;99.90
57386;DHT22;62655;56.780;23.922;2022-08-21T07:33:48;21.60;99.90
57386;DHT22;62655;56.780;23.922;2022-08-21T07:36:15;21.70;99.90
57386;DHT22;62655;56.780;23.922;2022-08-21T07:38:43;21.80;99.90
57386;DHT22;62655;56.780;23.922;2022-08-21T07:41:17;22.00;99.90
57386;DHT22;62655;56.780;23.922;2022-08-21T07:43:45;22.30;99.90
57386;DHT22;62655;56.780;23.922;2022-08-21T07:46:14;22.40;99.90
57386;DHT22;62655;56.780;23.922;2022-08-21T07:48:42;22.30;99.90
57386;DHT22;62655;56.780;23.922;2022-08-21T07:51:13;22.40;99.90
57386;DHT22;62655;56.780;23.922;2022-08-21T07:53:42;22.60;99.90
57386;DHT22;62655;56.780;23.922;2022-08-21T07:56:14;23.00;99.90
57386;DHT22;62655;56.780;23.922;2022-08-21T07:58:41;23.70;99.90
57386;DHT22;62655;56.780;23.922;2022-08-21T08:01:09;23.80;99.90
57386;DHT22;62655;56.780;23.922;2022-08-21T08:03:37;23.40;99.90
57386;DHT22;62655;56.780;23.922;2022-08-21T08:06:07;23.20;99.90
57386;DHT22;62655;56.780;23.922;2022-08-21T08:08:42;23.40;99.90
57386;DHT22;62655;56.780;23.922;2022-08-21T08:11:10;23.00;99.90
57386;DHT22;62655;56.780;23.922;2022-08-21T08:13:39;23.30;99.90
57386;DHT22;62655;56.780;23.922;2022-08-21T08:16:07;23.80;99.90
57386;DHT22;62655;56.780;23.922;2022-08-21T08:18:35;23.60;99.90
57386;DHT22;62655;56.780;23.922;2022-08-21T08:21:05;23.20;99.90
57386;DHT22;62655;56.780;23.922;2022-08-21T08:23:33;23.20;99.90
57386;DHT22;62655;56.780;23.922;2022-08-21T08:26:01;23.20;99.90
57386;DHT22;62655;56.780;23.922;2022-08-21T08:28:34;23.70;99.90
57386;DHT22;62655;56.780;23.922;2022-08-21T08:31:01;23.90;99.90
57386;DHT22;62655;56.780;23.922;2022-08-21T08:33:32;23.50;99.90
57386;DHT22;62655;56.780;23.922;2022-08-21T08:36:00;23.60;99.90
57386;DHT22;62655;56.780;23.922;2022-08-21T08:38:34;23.60;99.90
57386;DHT22;62655;56.780;23.922;2022-08-21T08:41:19;23.40;99.90
57386;DHT22;62655;56.780;23.922;2022-08-21T08:43:53;23.70;99.90
57386;DHT22;62655;56.780;23.922;2022-08-21T08:46:38;23.70;99.90
57386;DHT22;62655;56.780;23.922;2022-08-21T08:52:02;24.60;99.90
57386;DHT22;62655;56.780;23.922;2022-08-21T08:54:57;25.40;99.90
57386;DHT22;62655;56.780;23.922;2022-08-21T08:57:28;25.50;99.90
57386;DHT22;62655;56.780;23.922;2022-08-21T09:00:01;25.60;99.90
57386;DHT22;62655;56.780;23.922;2022-08-21T09:02:31;25.40;99.90
57386;DHT22;62655;56.780;23.922;2022-08-21T09:05:01;26.30;99.90
57386;DHT22;62655;56.780;23.922;2022-08-21T09:07:52;26.40;99.90
57386;DHT22;62655;56.780;23.922;2022-08-21T09:10:29;25.60;99.90
57386;DHT22;62655;56.780;23.922;2022-08-21T09:22:23;25.00;99.90
57386;DHT22;62655;56.780;23.922;2022-08-21T09:27:29;25.10;99.90
57386;DHT22;62655;56.780;23.922;2022-08-21T09:29:57;25.20;99.90
57386;DHT22;62655;56.780;23.922;2022-08-21T09:32:29;25.50;99.90
57386;DHT22;62655;56.780;23.922;2022-08-21T09:35:13;25.80;99.90
57386;DHT22;62655;56.780;23.922;2022-08-21T09:40:39;27.30;99.90
57386;DHT22;62655;56.780;23.922;2022-08-21T09:43:18;27.40;99.90
57386;DHT22;62655;56.780;23.922;2022-08-21T09:48:46;25.10;99.90
57386;DHT22;62655;56.780;23.922;2022-08-21T09:51:23;25.10;99.90
57386;DHT22;62655;56.780;23.922;2022-08-21T09:54:00;25.20;99.90
57386;DHT22;62655;56.780;23.922;2022-08-21T09:57:06;25.30;99.90
57386;DHT22;62655;56.780;23.922;2022-08-21T10:00:15;25.80;99.90
57386;DHT22;62655;56.780;23.922;2022-08-21T10:02:45;25.60;99.90
57386;DHT22;62655;56.780;23.922;2022-08-21T10:05:25;25.40;99.90
57386;DHT22;62655;56.780;23.922;2022-08-21T10:07:54;25.70;99.90
57386;DHT22;62655;56.780;23.922;2022-08-21T10:10:27;25.30;99.90
57386;DHT22;62655;56.780;23.922;2022-08-21T10:13:07;25.00;99.90
57386;DHT22;62655;56.780;23.922;2022-08-21T10:26:38;24.40;99.90
57386;DHT22;62655;56.780;23.922;2022-08-21T10:29:32;24.60;99.90
57386;DHT22;62655;56.780;23.922;2022-08-21T10:32:27;26.00;99.90
57386;DHT22;62655;56.780;23.922;2022-08-21T10:35:41;26.40;99.90
57386;DHT22;62655;56.780;23.922;2022-08-21T10:38:31;27.20;99.90
57386;DHT22;62655;56.780;23.922;2022-08-21T10:41:14;26.50;99.90
57386;DHT22;62655;56.780;23.922;2022-08-21T10:57:09;24.90;99.90
57386;DHT22;62655;56.780;23.922;2022-08-21T10:59:49;24.70;99.90
57386;DHT22;62655;56.780;23.922;2022-08-21T11:02:35;24.90;99.90
57386;DHT22;62655;56.780;23.922;2022-08-21T11:05:07;24.70;99.90
57386;DHT22;62655;56.780;23.922;2022-08-21T11:10:50;25.10;99.90
57386;DHT22;62655;56.780;23.922;2022-08-21T11:16:14;25.00;99.90
57386;DHT22;62655;56.780;23.922;2022-08-21T11:18:52;25.40;99.90
57386;DHT22;62655;56.780;23.922;2022-08-21T11:27:05;26.00;99.90
57386;DHT22;62655;56.780;23.922;2022-08-21T11:29:37;26.00;99.90
57386;DHT22;62655;56.780;23.922;2022-08-21T11:38:17;25.30;99.90
57386;DHT22;62655;56.780;23.922;2022-08-21T11:43:40;25.10;99.90
57386;DHT22;62655;56.780;23.922;2022-08-21T11:49:34;25.10;99.90
57386;DHT22;62655;56.780;23.922;2022-08-21T11:52:15;24.80;99.90
57386;DHT22;62655;56.780;23.922;2022-08-21T11:54:49;24.60;99.90
57386;DHT22;62655;56.780;23.922;2022-08-21T11:57:31;24.60;99.90
57386;DHT22;62655;56.780;23.922;2022-08-21T12:00:26;24.80;99.90
57386;DHT22;62655;56.780;23.922;2022-08-21T12:03:05;24.60;99.90
57386;DHT22;62655;56.780;23.922;2022-08-21T12:06:05;24.40;99.90
57386;DHT22;62655;56.780;23.922;2022-08-21T12:08:38;24.50;99.90
57386;DHT22;62655;56.780;23.922;2022-08-21T12:16:39;24.80;99.90
57386;DHT22;62655;56.780;23.922;2022-08-21T12:21:51;25.30;99.90
57386;DHT22;62655;56.780;23.922;2022-08-21T12:24:43;25.00;99.90
57386;DHT22;62655;56.780;23.922;2022-08-21T12:29:50;25.30;99.90
57386;DHT22;62655;56.780;23.922;2022-08-21T12:32:26;25.80;99.90
57386;DHT22;62655;56.780;23.922;2022-08-21T12:35:24;26.00;99.90
57386;DHT22;62655;56.780;23.922;2022-08-21T12:38:02;27.00;99.90
57386;DHT22;62655;56.780;23.922;2022-08-21T12:40:43;28.10;99.90
57386;DHT22;62655;56.780;23.922;2022-08-21T12:43:21;27.40;99.90
57386;DHT22;62655;56.780;23.922;2022-08-21T12:45:51;27.80;99.90
57386;DHT22;62655;56.780;23.922;2022-08-21T12:51:11;27.80;99.90
57386;DHT22;62655;56.780;23.922;2022-08-21T12:53:47;26.00;99.90
57386;DHT22;62655;56.780;23.922;2022-08-21T12:56:18;25.70;99.90
57386;DHT22;62655;56.780;23.922;2022-08-21T12:58:50;25.50;99.90
57386;DHT22;62655;56.780;23.922;2022-08-21T13:01:28;25.70;99.90
57386;DHT22;62655;56.780;23.922;2022-08-21T13:04:18;26.10;99.90
57386;DHT22;62655;56.780;23.922;2022-08-21T13:06:50;26.40;99.90
57386;DHT22;62655;56.780;23.922;2022-08-21T13:09:27;27.10;99.90
57386;DHT22;62655;56.780;23.922;2022-08-21T13:11:56;27.50;99.90
57386;DHT22;62655;56.780;23.922;2022-08-21T13:16:59;26.10;99.90
57386;DHT22;62655;56.780;23.922;2022-08-21T13:19:27;26.00;99.90
57386;DHT22;62655;56.780;23.922;2022-08-21T13:21:56;26.40;99.90
57386;DHT22;62655;56.780;23.922;2022-08-21T13:24:35;25.80;99.90
57386;DHT22;62655;56.780;23.922;2022-08-21T13:27:27;25.40;99.90
57386;DHT22;62655;56.780;23.922;2022-08-21T13:30:06;25.40;99.90
57386;DHT22;62655;56.780;23.922;2022-08-21T13:32:40;25.10;99.90
57386;DHT22;62655;56.780;23.922;2022-08-21T13:35:21;25.30;99.90
57386;DHT22;62655;56.780;23.922;2022-08-21T13:37:50;25.60;99.90
57386;DHT22;62655;56.780;23.922;2022-08-21T13:40:23;25.10;99.90
57386;DHT22;62655;56.780;23.922;2022-08-21T13:42:51;25.00;99.90
57386;DHT22;62655;56.780;23.922;2022-08-21T13:45:27;25.10;99.90
57386;DHT22;62655;56.780;23.922;2022-08-21T13:47:55;25.00;99.90
57386;DHT22;62655;56.780;23.922;2022-08-21T13:50:24;25.00;99.90
57386;DHT22;62655;56.780;23.922;2022-08-21T13:53:06;24.90;99.90
57386;DHT22;62655;56.780;23.922;2022-08-21T13:55:37;24.80;99.90
57386;DHT22;62655;56.780;23.922;2022-08-21T13:58:06;24.90;99.90
57386;DHT22;62655;56.780;23.922;2022-08-21T14:00:46;24.80;99.90
57386;DHT22;62655;56.780;23.922;2022-08-21T14:05:55;24.60;99.90
57386;DHT22;62655;56.780;23.922;2022-08-21T14:08:36;24.60;99.90
57386;DHT22;62655;56.780;23.922;2022-08-21T14:11:05;24.70;99.90
57386;DHT22;62655;56.780;23.922;2022-08-21T14:13:48;24.60;99.90
57386;DHT22;62655;56.780;23.922;2022-08-21T14:16:27;24.40;99.90
57386;DHT22;62655;56.780;23.922;2022-08-21T14:21:35;24.40;99.90
57386;DHT22;62655;56.780;23.922;2022-08-21T14:24:11;24.50;99.90
57386;DHT22;62655;56.780;23.922;2022-08-21T14:27:07;24.50;99.90
57386;DHT22;62655;56.780;23.922;2022-08-21T14:29:37;24.60;99.90
57386;DHT22;62655;56.780;23.922;2022-08-21T14:32:26;24.40;99.90
57386;DHT22;62655;56.780;23.922;2022-08-21T14:34:58;24.20;99.90
57386;DHT22;62655;56.780;23.922;2022-08-21T14:37:26;24.30;99.90
57386;DHT22;62655;56.780;23.922;2022-08-21T14:39:54;24.20;99.90
57386;DHT22;62655;56.780;23.922;2022-08-21T14:42:21;24.20;99.90
57386;DHT22;62655;56.780;23.922;2022-08-21T14:44:49;24.20;99.90
57386;DHT22;62655;56.780;23.922;2022-08-21T14:47:17;24.30;99.90
57386;DHT22;62655;56.780;23.922;2022-08-21T14:49:44;24.30;99.90
57386;DHT22;62655;56.780;23.922;2022-08-21T14:52:12;24.20;99.90
57386;DHT22;62655;56.780;23.922;2022-08-21T14:54:39;23.90;99.90
57386;DHT22;62655;56.780;23.922;2022-08-21T14:57:09;23.80;99.90
57386;DHT22;62655;56.780;23.922;2022-08-21T14:59:37;23.90;99.90
57386;DHT22;62655;56.780;23.922;2022-08-21T15:02:07;23.80;99.90
57386;DHT22;62655;56.780;23.922;2022-08-21T15:04:35;23.80;99.90
57386;DHT22;62655;56.780;23.922;2022-08-21T15:07:03;23.80;99.90
57386;DHT22;62655;56.780;23.922;2022-08-21T15:09:31;23.90;99.90
57386;DHT22;62655;56.780;23.922;2022-08-21T15:12:00;23.80;99.90
57386;DHT22;62655;56.780;23.922;2022-08-21T15:14:30;23.80;99.90
57386;DHT22;62655;56.780;23.922;2022-08-21T15:16:59;23.80;99.90
57386;DHT22;62655;56.780;23.922;2022-08-21T15:19:27;23.80;99.90
57386;DHT22;62655;56.780;23.922;2022-08-21T15:21:57;23.90;99.90
57386;DHT22;62655;56.780;23.922;2022-08-21T15:24:25;23.90;99.90
57386;DHT22;62655;56.780;23.922;2022-08-21T15:26:54;24.00;99.90
57386;DHT22;62655;56.780;23.922;2022-08-21T15:29:22;24.00;99.90
57386;DHT22;62655;56.780;23.922;2022-08-21T15:32:00;23.90;99.90
57386;DHT22;62655;56.780;23.922;2022-08-21T15:34:30;23.90;99.90
57386;DHT22;62655;56.780;23.922;2022-08-21T15:36:58;23.90;99.90
57386;DHT22;62655;56.780;23.922;2022-08-21T15:39:27;23.80;99.90
57386;DHT22;62655;56.780;23.922;2022-08-21T15:41:55;23.90;99.90
57386;DHT22;62655;56.780;23.922;2022-08-21T15:44:25;23.90;99.90
57386;DHT22;62655;56.780;23.922;2022-08-21T15:46:53;23.90;99.90
57386;DHT22;62655;56.780;23.922;2022-08-21T15:49:21;23.80;99.90
57386;DHT22;62655;56.780;23.922;2022-08-21T15:51:49;23.70;99.90
57386;DHT22;62655;56.780;23.922;2022-08-21T15:54:16;23.60;99.90
57386;DHT22;62655;56.780;23.922;2022-08-21T15:56:46;23.50;99.90
57386;DHT22;62655;56.780;23.922;2022-08-21T15:59:18;23.50;99.90
57386;DHT22;62655;56.780;23.922;2022-08-21T16:01:50;23.40;99.90
57386;DHT22;62655;56.780;23.922;2022-08-21T16:04:25;23.20;99.90
57386;DHT22;62655;56.780;23.922;2022-08-21T16:06:55;23.20;99.90
57386;DHT22;62655;56.780;23.922;2022-08-21T16:09:31;23.20;99.90
57386;DHT22;62655;56.780;23.922;2022-08-21T16:11:59;23.20;99.90
57386;DHT22;62655;56.780;23.922;2022-08-21T16:14:29;23.10;99.90
57386;DHT22;62655;56.780;23.922;2022-08-21T16:16:58;23.20;99.90
57386;DHT22;62655;56.780;23.922;2022-08-21T16:19:27;23.10;99.90
57386;DHT22;62655;56.780;23.922;2022-08-21T16:21:56;23.00;99.90
57386;DHT22;62655;56.780;23.922;2022-08-21T16:24:24;23.00;99.90
57386;DHT22;62655;56.780;23.922;2022-08-21T16:26:51;23.00;99.90
57386;DHT22;62655;56.780;23.922;2022-08-21T16:29:26;22.90;99.90
57386;DHT22;62655;56.780;23.922;2022-08-21T16:31:57;22.90;99.90
57386;DHT22;62655;56.780;23.922;2022-08-21T16:34:26;23.00;99.90
57386;DHT22;62655;56.780;23.922;2022-08-21T16:36:54;23.00;99.90
57386;DHT22;62655;56.780;23.922;2022-08-21T16:39:22;23.00;99.90
57386;DHT22;62655;56.780;23.922;2022-08-21T16:41:50;23.00;99.90
57386;DHT22;62655;56.780;23.922;2022-08-21T16:44:21;22.90;99.90
57386;DHT22;62655;56.780;23.922;2022-08-21T16:46:49;22.90;99.90
57386;DHT22;62655;56.780;23.922;2022-08-21T16:49:17;22.80;99.90
57386;DHT22;62655;56.780;23.922;2022-08-21T16:51:45;22.80;99.90
57386;DHT22;62655;56.780;23.922;2022-08-21T16:54:12;22.80;99.90
57386;DHT22;62655;56.780;23.922;2022-08-21T16:56:40;22.70;99.90
57386;DHT22;62655;56.780;23.922;2022-08-21T16:59:13;22.60;99.90
57386;DHT22;62655;56.780;23.922;2022-08-21T17:01:43;22.60;99.90
57386;DHT22;62655;56.780;23.922;2022-08-21T17:04:12;22.50;99.90
57386;DHT22;62655;56.780;23.922;2022-08-21T17:06:40;22.60;99.90
57386;DHT22;62655;56.780;23.922;2022-08-21T17:09:09;22.60;99.90
57386;DHT22;62655;56.780;23.922;2022-08-21T17:11:40;22.50;99.90
57386;DHT22;62655;56.780;23.922;2022-08-21T17:14:19;22.50;99.90